WEATHER DATA

YESTERDAY
Time Temp. Dewp. Hum. Wind dir Wind speed Wind gust Bar. 1h Prec. 24h Prec.
00:05 7.6 2.3 69 270 0.3 0.8 1022 0.0000 0.0000
00:25 7.4 2.3 70 270 0.3 0.8 1022 0.0000 0.0000
00:35 7.4 2.1 69 270 0.3 0.8 1022 0.0000 0.0000
00:45 7.4 2.1 69 0 0.8 1022 0.0000 0.0000
00:55 7.1 2 70 0 0.8 1022 0.0000 0.0000
01:05 7 2.3 72 0 0.3 1021.9 0.0000 0.0000
01:15 7 2.5 73 0 0.3 1021.8 0.0000 0.0000
01:25 7 2.5 73 0 0.8 1021.8 0.0000 0.0000
01:36 6.9 2.4 73 0 0.3 1021.8 0.0000 0.0000
01:46 6.8 2.3 73 0 0.3 1021.7 0.0000 0.0000
01:55 6.8 2.3 73 0 0.3 1021.7 0.0000 0.0000
02:06 6.7 2.2 73 0 0.8 1021.6 0.0000 0.0000
02:16 6.7 2.2 73 270 0.3 0.8 1021.6 0.0000 0.0000
02:26 6.7 2.2 73 270 0.3 0.8 1021.5 0.0000 0.0000
02:36 6.6 2.1 73 270 0.3 0.8 1021.4 0.0000 0.0000
02:46 6.3 1.8 73 270 0.3 0.8 1021.4 0.0000 0.0000
02:56 6.2 1.9 74 270 0.3 0.8 1021.3 0.0000 0.0000
03:06 6 1.7 74 270 0.3 0.8 1021.3 0.0000 0.0000
03:16 5.9 1.8 75 270 0.3 0.8 1021.2 0.0000 0.0000
03:27 5.8 1.9 76 270 0.3 0.8 1021.1 0.0000 0.0000
03:37 5.8 2.1 77 270 0.3 0.8 1021.1 0.0000 0.0000
03:46 5.8 2.1 77 270 0.3 0.8 1021 0.0000 0.0000
03:57 5.9 2.2 77 270 0.3 0.8 1021 0.0000 0.0000
04:07 5.7 1.8 76 270 0.3 0.8 1020.9 0.0000 0.0000
04:17 5.5 1.6 76 270 0.3 0.8 1020.8 0.0000 0.0000
04:27 5.4 1.7 77 270 0.3 0.8 1020.8 0.0000 0.0000
04:38 5.3 1.8 78 270 0.3 0.8 1020.8 0.0000 0.0000
04:47 5.2 1.9 79 270 0.3 0.8 1020.8 0.0000 0.0000
04:57 5 1.7 79 270 0.3 0.8 1020.8 0.0000 0.0000
05:08 4.8 1.5 79 270 0.3 0.8 1020.8 0.0000 0.0000
05:18 4.7 1.7 81 270 0.3 1.1 1020.7 0.0000 0.0000
05:28 4.7 1.7 81 194 0.3 1.1 1020.6 0.0000 0.0000
05:38 4.7 1.7 81 270 0.3 0.8 1020.6 0.0000 0.0000
05:48 4.7 1.7 81 270 0.3 0.8 1020.6 0.0000 0.0000
05:58 4.6 1.8 82 270 0.3 0.8 1020.6 0.0000 0.0000
06:08 4.6 1.8 82 200 0.3 1.1 1020.7 0.0000 0.0000
06:18 4.5 1.7 82 177 0.3 1.4 1020.7 0.0000 0.0000
06:29 4.4 1.8 83 173 0.8 1.7 1020.7 0.0000 0.0000
06:38 4.4 1.8 83 171 0.8 1.7 1020.6 0.0000 0.0000
06:48 4.3 1.7 83 175 0.8 1.7 1020.6 0.0000 0.0000
06:59 4.3 1.8 84 177 0.8 1.7 1020.6 0.0000 0.0000
07:09 4.3 1.7 83 171 0.8 1.4 1020.6 0.0000 0.0000
07:19 4.3 1.8 84 198 0.3 1.4 1020.6 0.0000 0.0000
07:29 4.3 1.8 84 270 0.3 0.8 1020.6 0.0000 0.0000
07:39 4.3 1.8 84 194 0.8 2.2 1020.6 0.0000 0.0000
07:49 4.4 2.1 85 178 0.8 2.2 1020.7 0.0000 0.0000
07:59 4.6 2.3 85 216 0.3 1.7 1020.6 0.0000 0.0000
08:10 4.9 2.8 86 214 0.3 2.2 1020.6 0.0000 0.0000
08:20 5.3 3.2 86 210 0.8 2.2 1020.6 0.0000 0.0000
08:30 5.7 3.5 86 180 0.8 2.5 1020.7 0.0000 0.0000
08:39 6 3.7 85 180 0.8 2.2 1020.7 0.0000 0.0000
08:50 6.4 4.1 85 183 0.8 1.7 1020.7 0.0000 0.0000
09:00 6.7 4.2 84 181 0.8 3.1 1020.8 0.0000 0.0000
09:10 7.1 4.4 83 178 0.8 2.2 1020.8 0.0000 0.0000
09:20 7.4 4.5 82 191 0.8 2.8 1020.8 0.0000 0.0000
09:30 7.7 4.8 82 173 1.1 3.1 1020.6 0.0000 0.0000
09:40 8.1 4.9 80 180 1.1 2.8 1020.6 0.0000 0.0000
09:50 8.5 5.1 79 177 1.1 3.6 1020.6 0.0000 0.0000
10:01 8.9 5.3 78 187 0.8 2.2 1020.4 0.0000 0.0000
10:11 9.3 5.5 77 181 1.1 4.2 1020.5 0.0000 0.0000
10:20 9.7 5.7 76 188 0.8 2.5 1020.3 0.0000 0.0000
10:31 10.2 6 75 174 1.1 3.6 1020.2 0.0000 0.0000
10:41 10.6 6 73 181 1.1 3.6 1020.1 0.0000 0.0000
10:51 11.1 6.2 72 184 1.4 3.6 1020.1 0.0000 0.0000
11:01 11.5 6.4 71 197 1.1 3.1 1020 0.0000 0.0000
11:11 12 6.7 70 185 1.1 3.1 1019.9 0.0000 0.0000
11:21 12.4 6.9 69 176 1.4 3.6 1019.8 0.0000 0.0000
11:31 12.9 7.4 69 178 1.1 2.8 1019.7 0.0000 0.0000
11:41 13.3 7.3 67 196 0.8 2.8 1019.6 0.0000 0.0000
11:53 13.9 7.7 66 184 1.4 3.6 1019.4 0.0000 0.0000
12:03 14.2 7.7 65 184 1.1 3.1 1019.2 0.0000 0.0000
12:13 14.7 8.2 65 190 1.1 2.5 1019 0.0000 0.0000
12:23 15.1 8.1 63 182 1.4 3.9 1018.8 0.0000 0.0000
12:34 15.5 8.3 62 190 1.4 3.1 1018.7 0.0000 0.0000
12:44 16 7 55 183 1.4 3.9 1018.6 0.0000 0.0000
12:54 16.4 6.8 53 188 1.4 3.9 1018.4 0.0000 0.0000
12:59 16.5 7.4 55 196 1.1 3.1 1018.4 0.0000 0.0000
13:15 16.8 8 56 186 1.1 3.6 1018.2 0.0000 0.0000
13:25 17 7.4 53 196 1.4 3.6 1018 0.0000 0.0000
13:45 17.4 7.2 51 186 1.4 3.1 1017.8 0.0000 0.0000
13:56 17.6 7.1 50 191 1.4 3.6 1017.7 0.0000 0.0000
14:05 17.7 6.6 48 180 1.1 3.1 1017.5 0.0000 0.0000
14:15 17.9 7.3 50 191 1.4 4.4 1017.5 0.0000 0.0000
14:25 17.9 6.4 47 184 1.7 3.9 1017.5 0.0000 0.0000
14:36 17.9 7.3 50 191 1.1 3.1 1017.4 0.0000 0.0000
14:46 17.9 7.3 50 181 1.7 4.2 1017.4 0.0000 0.0000
14:55 18 7.7 51 183 1.4 4.4 1017.4 0.0000 0.0000
15:07 18 7.4 50 186 1.4 4.2 1017.3 0.0000 0.0000
15:17 18 7.7 51 178 1.4 3.6 1017.2 0.0000 0.0000
15:27 18.1 7.8 51 188 1.4 3.6 1017.1 0.0000 0.0000
15:37 18.2 7.9 51 185 1.4 3.9 1016.8 0.0000 0.0000
15:48 18.3 8 51 188 1.4 4.2 1016.7 0.0000 0.0000
16:03 18.3 8 51 181 1.4 3.1 1016.6 0.0000 0.0000
16:14 18.4 8.1 51 178 1.4 5 1016.4 0.0000 0.0000
16:24 18.3 8.3 52 200 1.1 3.6 1016.3 0.0000 0.0000
16:34 18.3 8.3 52 183 1.1 3.9 1016.2 0.0000 0.0000
16:38 18.4 8.4 52 186 1.1 3.9 1016.1 0.0000 0.0000
16:48 18.3 8.3 52 190 1.1 2.5 1016.1 0.0000 0.0000
16:58 18.3 8 51 189 1.1 3.1 1016 0.0000 0.0000
17:08 18.2 8.2 52 181 1.1 2.8 1015.8 0.0000 0.0000
17:18 18.2 7.9 51 177 1.1 3.1 1015.6 0.0000 0.0000
17:27 18.2 7.9 51 186 1.4 3.1 1015.6 0.0000 0.0000
17:39 18.1 8.4 53 183 1.1 3.6 1015.5 0.0000 0.0000
17:49 18 7.7 51 194 1.1 3.9 1015.4 0.0000 0.0000
17:58 17.9 7.6 51 177 1.4 3.6 1015.4 0.0000 0.0000
18:08 17.8 7.5 51 190 1.4 3.1 1015.3 0.0000 0.0000
18:19 17.7 7.7 52 196 1.1 2.8 1015.3 0.0000 0.0000
18:26 17.7 7.7 52 191 1.1 3.1 1015.3 0.0000 0.0000
18:46 17.4 7.5 52 194 1.1 3.1 1015.2 0.0000 0.0000
18:56 17.2 7.3 52 187 1.1 2.5 1015.1 0.0000 0.0000
19:07 17 7.4 53 198 1.1 2.5 1014.9 0.0000 0.0000
19:17 16.8 7.5 54 190 1.1 2.5 1014.9 0.0000 0.0000
19:27 16.5 7.2 54 181 1.4 3.6 1014.9 0.0000 0.0000
19:37 16.2 7.2 55 183 1.1 2.8 1014.9 0.0000 0.0000
19:47 15.9 7.1 56 183 1.1 3.6 1014.9 0.0000 0.0000
19:57 15.5 7 57 185 1.1 2.5 1014.9 0.0000 0.0000
20:07 15.2 6.7 57 169 1.1 2.8 1015 0.0000 0.0000
20:18 14.9 6.7 58 176 1.1 2.8 1014.9 0.0000 0.0000
20:28 14.6 6.4 58 169 1.1 2.5 1015 0.0000 0.0000
20:38 14.3 6.2 58 205 0.8 2.2 1015 0.0000 0.0000
20:41 14.2 6.1 58 225 0.3 1.1 1014.9 0.0000 0.0000
21:55 12.8 5.5 61 183 0.8 1.7 1014.8 0.0000 0.0000
22:04 12.7 5.4 61 180 0.8 1.7 1014.9 0.0000 0.0000
22:14 12.5 5.4 62 199 0.8 2.2 1014.7 0.0000 0.0000
22:25 12.4 5.3 62 180 0.8 2.2 1014.6 0.0000 0.0000
22:35 12.2 5.4 63 199 0.8 1.7 1014.5 0.0000 0.0000
22:45 12.1 5.5 64 187 0.8 1.4 1014.4 0.0000 0.0000
23:05 12.1 5.7 65 180 1.1 2.5 1014.3 0.0000 0.0000
23:20 11.9 5.5 65 186 0.8 2.2 1014.3 0.0000 0.0000
23:30 11.8 5.4 65 181 0.8 2.5 1014.2 0.0000 0.0000
23:40 11.8 5.4 65 175 1.1 2.5 1014.1 0.0000 0.0000
23:50 11.8 5.4 65 177 1.1 2.8 1014 0.0000 0.0000

DAY STATISTIC

2020-04-05
TEMPERATURE
AVERAGE
11.2
HIGH
18.4
16:14
LOW
4.3
06:48
PRESSURE
AVERAGE
1018.6
HIGH
1022.0
00:05
LOW
1014.0
23:50
DEWPOINT
AVERAGE
5.0
HIGH
8.4
16:38
LOW
1.5
05:08
HUMIDITY
AVERAGE
67
HIGH
86
08:10
LOW
47
14:25
WIND SPEED
AVERAGE
0.8
HIGH
1.7
14:25
WIND GUST
AVERAGE
2.3
HIGH
5.0
16:14
WIND DIRECTION
PREVAILING
S
69.7%
N
0.0
NE
0.0
E
0.0
SE
0.0
S
69.7
SW
3.8
W
19.7
NW
0.0
PRECIPITATION
RAIN HOUR
0.0
RAIN DAY
0.0
TEMPERATURE (°C)
LOW
4.3
HIGH
18.4
AVERAGE
11.2
PRESSURE (hpa)
LOW
1014.0
HIGH
1022.0
AVERAGE
1018.6
DEVICE